createdAt,value
2023-01-08T00:01:19.994Z,98928.20
2023-01-08T00:03:46.764Z,98929.20
2023-01-08T00:06:17.677Z,98927.00
2023-01-08T00:08:45.095Z,98916.00
2023-01-08T00:11:12.926Z,98919.40
2023-01-08T00:13:39.705Z,98911.40
2023-01-08T00:16:10.873Z,98915.60
2023-01-08T00:18:37.778Z,98908.40
2023-01-08T00:21:05.761Z,98904.20
2023-01-08T00:23:33.304Z,98900.00
2023-01-08T00:26:07.076Z,98901.00
2023-01-08T00:28:34.649Z,98900.20
2023-01-08T00:31:07.566Z,98898.20
2023-01-08T00:33:35.275Z,98896.60
2023-01-08T00:36:11.977Z,98894.60
2023-01-08T00:38:38.488Z,98895.40
2023-01-08T00:41:05.470Z,98893.60
2023-01-08T00:43:32.445Z,98893.00
2023-01-08T00:45:59.208Z,98887.40
2023-01-08T00:48:26.087Z,98887.00
2023-01-08T00:50:54.217Z,98885.60
2023-01-08T00:53:22.553Z,98880.60
2023-01-08T00:55:49.839Z,98877.20
2023-01-08T00:58:16.678Z,98873.80
2023-01-08T01:00:43.166Z,98872.60
2023-01-08T01:03:09.652Z,98866.20
2023-01-08T01:05:36.071Z,98856.80
2023-01-08T01:08:02.583Z,98857.20
2023-01-08T01:10:29.063Z,98860.00
2023-01-08T01:12:55.494Z,98855.00
2023-01-08T01:15:22.023Z,98850.40
2023-01-08T01:17:48.409Z,98851.40
2023-01-08T01:20:16.966Z,98843.40
2023-01-08T01:22:43.956Z,98847.40
2023-01-08T01:25:11.035Z,98843.00
2023-01-08T01:27:37.633Z,98839.00
2023-01-08T01:30:05.642Z,98841.00
2023-01-08T01:32:32.911Z,98843.80
2023-01-08T01:34:59.636Z,98840.00
2023-01-08T01:37:26.173Z,98837.80
2023-01-08T01:39:52.654Z,98833.40
2023-01-08T01:42:39.363Z,98835.00
2023-01-08T01:45:22.369Z,98838.60
2023-01-08T01:48:13.773Z,98837.60
2023-01-08T01:50:47.073Z,98835.80
2023-01-08T01:53:41.780Z,98837.80
2023-01-08T01:56:09.151Z,98840.40
2023-01-08T01:58:36.492Z,98835.20
2023-01-08T02:01:08.148Z,98836.60
2023-01-08T02:03:38.362Z,98834.00
2023-01-08T02:06:26.770Z,98830.60
2023-01-08T02:09:04.929Z,98828.80
2023-01-08T02:12:24.868Z,98829.40
2023-01-08T02:15:11.329Z,98824.60
2023-01-08T02:17:58.545Z,98822.80
2023-01-08T02:20:33.858Z,98828.00
2023-01-08T02:23:09.333Z,98829.20
2023-01-08T02:26:09.156Z,98823.00
2023-01-08T02:28:47.177Z,98816.40
2023-01-08T02:31:16.311Z,98819.40
2023-01-08T02:33:42.795Z,98810.00
2023-01-08T02:36:46.153Z,98803.80
2023-01-08T02:39:33.287Z,98808.20
2023-01-08T02:42:08.638Z,98804.20
2023-01-08T02:44:50.279Z,98801.00
2023-01-08T02:47:38.097Z,98800.00
2023-01-08T02:50:59.990Z,98799.20
2023-01-08T02:53:34.442Z,98797.00
2023-01-08T02:56:10.093Z,98800.60
2023-01-08T02:58:40.307Z,98804.20
2023-01-08T03:01:11.826Z,98804.40
2023-01-08T03:03:43.406Z,98803.20
2023-01-08T03:06:15.445Z,98802.20
2023-01-08T03:08:47.683Z,98795.60
2023-01-08T03:11:18.448Z,98796.00
2023-01-08T03:14:29.868Z,98788.40
2023-01-08T03:17:17.705Z,98796.80
2023-01-08T03:19:54.442Z,98794.40
2023-01-08T03:22:23.665Z,98785.00
2023-01-08T03:24:54.377Z,98779.00
2023-01-08T03:27:28.205Z,98780.00
2023-01-08T03:29:59.148Z,98772.40
2023-01-08T03:32:31.079Z,98776.60
2023-01-08T03:35:02.269Z,98788.60
2023-01-08T03:37:39.813Z,98784.20
2023-01-08T03:40:26.194Z,98791.40
2023-01-08T03:42:52.956Z,98800.80
2023-01-08T03:45:23.063Z,98797.00
2023-01-08T03:47:50.487Z,98801.00
2023-01-08T03:50:25.341Z,98803.00
2023-01-08T03:52:52.263Z,98805.20
2023-01-08T03:55:18.780Z,98796.60
2023-01-08T03:57:45.379Z,98779.60
2023-01-08T04:00:12.768Z,98771.20
2023-01-08T04:02:39.485Z,98770.80
2023-01-08T04:05:06.746Z,98764.00
2023-01-08T04:07:33.217Z,98763.00
2023-01-08T04:09:59.692Z,98750.40
2023-01-08T04:12:26.126Z,98750.60
2023-01-08T04:14:52.643Z,98752.60
2023-01-08T04:17:19.099Z,98752.40
2023-01-08T04:19:46.031Z,98749.60
2023-01-08T04:22:12.625Z,98752.40
2023-01-08T04:24:39.082Z,98748.60
2023-01-08T04:27:05.807Z,98745.80
2023-01-08T04:29:32.383Z,98743.00
2023-01-08T04:32:00.412Z,98751.40
2023-01-08T04:34:26.909Z,98755.00
2023-01-08T04:36:53.377Z,98744.20
2023-01-08T04:39:19.839Z,98745.20
2023-01-08T04:41:46.309Z,98742.40
2023-01-08T04:44:12.706Z,98748.40
2023-01-08T04:46:39.358Z,98747.20
2023-01-08T04:49:05.871Z,98750.80
2023-01-08T04:51:32.322Z,98743.20
2023-01-08T04:53:58.924Z,98737.80
2023-01-08T04:56:25.442Z,98744.60
2023-01-08T04:58:52.546Z,98743.60
2023-01-08T05:01:22.838Z,98750.80
2023-01-08T05:03:58.814Z,98745.80
2023-01-08T05:06:26.390Z,98743.60
2023-01-08T05:08:53.183Z,98737.60
2023-01-08T05:11:20.482Z,98735.20
2023-01-08T05:13:52.414Z,98733.80
2023-01-08T05:16:19.626Z,98736.20
2023-01-08T05:18:46.213Z,98723.00
2023-01-08T05:21:13.862Z,98722.80
2023-01-08T05:23:45.457Z,98719.60
2023-01-08T05:26:11.983Z,98726.20
2023-01-08T05:28:38.526Z,98730.40
2023-01-08T05:31:05.267Z,98729.80
2023-01-08T05:33:31.702Z,98724.80
2023-01-08T05:35:58.235Z,98722.00
2023-01-08T05:38:24.897Z,98714.80
2023-01-08T05:40:54.591Z,98707.20
2023-01-08T05:43:21.201Z,98707.00
2023-01-08T05:45:47.982Z,98700.60
2023-01-08T05:48:14.501Z,98697.20
2023-01-08T05:50:41.000Z,98700.20
2023-01-08T05:53:09.546Z,98705.20
2023-01-08T05:55:36.850Z,98707.60
2023-01-08T05:58:05.164Z,98695.40
2023-01-08T06:00:33.266Z,98695.00
2023-01-08T06:02:59.900Z,98688.20
2023-01-08T06:05:26.940Z,98681.40
2023-01-08T06:07:53.409Z,98678.60
2023-01-08T06:10:19.971Z,98678.40
2023-01-08T06:12:46.447Z,98675.20
2023-01-08T06:15:13.073Z,98678.00
2023-01-08T06:17:39.765Z,98676.20
2023-01-08T06:20:06.931Z,98672.60
2023-01-08T06:22:34.906Z,98662.40
2023-01-08T06:25:01.855Z,98660.80
2023-01-08T06:27:28.374Z,98658.20
2023-01-08T06:29:54.917Z,98647.80
2023-01-08T06:32:21.562Z,98650.40
2023-01-08T06:34:47.975Z,98658.00
2023-01-08T06:37:14.646Z,98653.80
2023-01-08T06:39:41.078Z,98650.60
2023-01-08T06:42:07.589Z,98652.60
2023-01-08T06:44:34.029Z,98643.40
2023-01-08T06:47:00.482Z,98651.60
2023-01-08T06:49:26.926Z,98658.20
2023-01-08T06:51:53.328Z,98665.40
2023-01-08T06:54:19.939Z,98661.60
2023-01-08T06:56:53.988Z,98661.40
2023-01-08T06:59:21.340Z,98661.00
2023-01-08T07:01:48.208Z,98653.40
2023-01-08T07:04:14.805Z,98648.40
2023-01-08T07:06:41.328Z,98654.60
2023-01-08T07:09:07.813Z,98661.00
2023-01-08T07:11:34.241Z,98652.80
2023-01-08T07:14:00.809Z,98656.80
2023-01-08T07:16:27.407Z,98657.00
2023-01-08T07:18:53.906Z,98645.20
2023-01-08T07:21:22.479Z,98644.40
2023-01-08T07:23:50.397Z,98641.20
2023-01-08T07:26:17.654Z,98639.00
2023-01-08T07:28:44.702Z,98634.40
2023-01-08T07:31:11.344Z,98629.80
2023-01-08T07:33:38.026Z,98628.00
2023-01-08T07:36:05.643Z,98619.60
2023-01-08T07:38:32.203Z,98629.20
2023-01-08T07:41:01.580Z,98631.80
2023-01-08T07:43:29.925Z,98635.40
2023-01-08T07:45:56.856Z,98640.40
2023-01-08T07:48:23.948Z,98646.60
2023-01-08T07:50:50.487Z,98648.00
2023-01-08T07:53:17.740Z,98652.20
2023-01-08T07:55:44.474Z,98642.60
2023-01-08T07:58:14.448Z,98650.00
2023-01-08T08:00:41.634Z,98647.00
2023-01-08T08:03:11.759Z,98638.00
2023-01-08T08:05:39.131Z,98640.80
2023-01-08T08:08:11.268Z,98648.00
2023-01-08T08:10:39.544Z,98651.40
2023-01-08T08:13:06.619Z,98646.20
2023-01-08T08:15:35.175Z,98638.60
2023-01-08T08:18:02.368Z,98635.80
2023-01-08T08:20:29.725Z,98625.20
2023-01-08T08:23:15.080Z,98626.40
2023-01-08T08:25:43.064Z,98623.40
2023-01-08T08:28:12.078Z,98620.00
2023-01-08T08:30:42.102Z,98614.00
2023-01-08T08:33:10.220Z,98621.20
2023-01-08T08:35:37.455Z,98626.40
2023-01-08T08:38:04.557Z,98619.00
2023-01-08T08:40:31.019Z,98623.00
2023-01-08T08:43:02.616Z,98628.00
2023-01-08T08:45:29.887Z,98628.80
2023-01-08T08:47:56.410Z,98619.20
2023-01-08T08:50:23.969Z,98621.00
2023-01-08T08:52:50.569Z,98615.60
2023-01-08T08:55:17.575Z,98618.80
2023-01-08T08:57:46.053Z,98616.20
2023-01-08T09:00:14.404Z,98616.60
2023-01-08T09:02:41.088Z,98613.40
2023-01-08T09:05:07.945Z,98606.80
2023-01-08T09:07:34.373Z,98606.80
2023-01-08T09:10:00.989Z,98602.40
2023-01-08T09:12:27.472Z,98604.00
2023-01-08T09:14:54.867Z,98598.60
2023-01-08T09:17:21.654Z,98597.00
2023-01-08T09:19:48.237Z,98592.20
2023-01-08T09:22:15.524Z,98595.20
2023-01-08T09:24:42.026Z,98592.60
2023-01-08T09:27:10.984Z,98590.00
2023-01-08T09:29:37.668Z,98581.80
2023-01-08T09:32:07.398Z,98581.80
2023-01-08T09:34:37.753Z,98575.60
2023-01-08T09:37:05.408Z,98566.40
2023-01-08T09:39:32.302Z,98558.00
2023-01-08T09:42:05.460Z,98560.20
2023-01-08T09:44:42.114Z,98558.80
2023-01-08T09:47:26.638Z,98553.00
2023-01-08T09:49:59.918Z,98557.20
2023-01-08T09:52:26.679Z,98553.40
2023-01-08T09:54:53.964Z,98559.40
2023-01-08T09:57:22.219Z,98554.80
2023-01-08T09:59:49.860Z,98549.80
2023-01-08T10:02:20.918Z,98541.20
2023-01-08T10:04:57.298Z,98537.00
2023-01-08T10:07:26.539Z,98539.80
2023-01-08T10:09:55.173Z,98547.00
2023-01-08T10:12:29.880Z,98539.40
2023-01-08T10:15:03.711Z,98531.40
2023-01-08T10:17:51.316Z,98534.40
2023-01-08T10:20:23.073Z,98520.60
2023-01-08T10:22:54.214Z,98513.80
2023-01-08T10:25:25.496Z,98511.40
2023-01-08T10:27:58.075Z,98505.20
2023-01-08T10:30:39.887Z,98497.40
2023-01-08T10:33:20.008Z,98496.20
2023-01-08T10:35:55.918Z,98496.60
2023-01-08T10:38:33.556Z,98500.40
2023-01-08T10:41:11.504Z,98498.40
2023-01-08T10:44:00.506Z,98493.40
2023-01-08T10:46:45.200Z,98496.00
2023-01-08T10:49:31.822Z,98494.60
2023-01-08T10:51:59.288Z,98490.40
2023-01-08T10:54:40.174Z,98478.00
2023-01-08T10:57:41.873Z,98465.20
2023-01-08T11:00:27.300Z,98462.40
2023-01-08T11:02:54.345Z,98457.80
2023-01-08T11:05:31.148Z,98464.60
2023-01-08T11:08:02.376Z,98455.00
2023-01-08T11:10:30.231Z,98459.60
2023-01-08T11:13:07.335Z,98461.80
2023-01-08T11:15:40.345Z,98462.00
2023-01-08T11:18:19.713Z,98460.00
2023-01-08T11:20:47.422Z,98459.60
2023-01-08T11:23:20.443Z,98458.80
2023-01-08T11:26:20.715Z,98455.00
2023-01-08T11:29:12.638Z,98454.80
2023-01-08T11:31:53.884Z,98456.60
2023-01-08T11:34:38.048Z,98457.80
2023-01-08T11:37:18.789Z,98458.00
2023-01-08T11:39:45.666Z,98452.40
2023-01-08T11:42:42.424Z,98448.20
2023-01-08T11:45:51.480Z,98438.40
2023-01-08T11:48:39.530Z,98434.20
2023-01-08T11:51:36.958Z,98427.20
2023-01-08T11:54:30.597Z,98429.80
2023-01-08T11:57:18.969Z,98441.00
2023-01-08T12:00:14.498Z,98441.40
2023-01-08T12:03:03.866Z,98436.60
2023-01-08T12:05:50.100Z,98430.60
2023-01-08T12:08:32.441Z,98426.00
2023-01-08T12:11:16.245Z,98429.00
2023-01-08T12:14:17.306Z,98424.20
2023-01-08T12:17:13.034Z,98424.80
2023-01-08T12:20:01.633Z,98423.40
2023-01-08T12:23:16.251Z,98422.40
2023-01-08T12:26:00.393Z,98413.00
2023-01-08T12:28:48.423Z,98412.60
2023-01-08T12:31:44.164Z,98411.20
2023-01-08T12:34:19.136Z,98407.60
2023-01-08T12:36:54.783Z,98409.00
2023-01-08T12:39:29.376Z,98406.80
2023-01-08T12:42:10.504Z,98405.60
2023-01-08T12:44:38.051Z,98399.80
2023-01-08T12:47:07.759Z,98390.60
2023-01-08T12:49:51.648Z,98391.20
2023-01-08T12:52:41.876Z,98388.20
2023-01-08T12:55:34.275Z,98392.00
2023-01-08T12:58:23.929Z,98382.20
2023-01-08T13:01:28.228Z,98375.00
2023-01-08T13:03:55.488Z,98378.00
2023-01-08T13:06:23.233Z,98379.80
2023-01-08T13:08:53.770Z,98380.60
2023-01-08T13:11:31.781Z,98382.60
2023-01-08T13:14:18.817Z,98376.60
2023-01-08T13:16:47.854Z,98375.60
2023-01-08T13:19:27.838Z,98371.20
2023-01-08T13:21:58.665Z,98371.00
2023-01-08T13:24:38.336Z,98365.60
2023-01-08T13:27:16.887Z,98360.80
2023-01-08T13:29:49.773Z,98365.60
2023-01-08T13:32:34.939Z,98358.00
2023-01-08T13:35:17.066Z,98363.20
2023-01-08T13:37:47.580Z,98359.00
2023-01-08T13:40:51.247Z,98356.40
2023-01-08T13:43:41.917Z,98353.60
2023-01-08T13:46:20.208Z,98361.00
2023-01-08T13:49:00.001Z,98357.00
2023-01-08T13:51:38.795Z,98359.40
2023-01-08T13:54:17.345Z,98360.60
2023-01-08T13:56:48.635Z,98361.80
2023-01-08T13:59:35.495Z,98360.60
2023-01-08T14:02:02.116Z,98363.80
2023-01-08T14:04:28.935Z,98366.00
2023-01-08T14:07:14.955Z,98364.40
2023-01-08T14:09:41.953Z,98362.00
2023-01-08T14:12:15.868Z,98360.60
2023-01-08T14:14:51.662Z,98361.60
2023-01-08T14:17:25.392Z,98368.80
2023-01-08T14:19:52.049Z,98364.20
2023-01-08T14:22:31.364Z,98366.40
2023-01-08T14:25:03.606Z,98372.40
2023-01-08T14:27:32.663Z,98367.60
2023-01-08T14:29:59.196Z,98360.80
2023-01-08T14:32:29.681Z,98364.60
2023-01-08T14:35:00.408Z,98367.00
2023-01-08T14:37:27.136Z,98362.00
2023-01-08T14:39:54.917Z,98360.00
2023-01-08T14:42:43.969Z,98361.80
2023-01-08T14:45:26.456Z,98359.40
2023-01-08T14:47:59.045Z,98356.20
2023-01-08T14:50:33.704Z,98359.40
2023-01-08T14:53:26.007Z,98366.20
2023-01-08T14:55:56.012Z,98358.20
2023-01-08T14:58:26.876Z,98352.60
2023-01-08T15:01:02.180Z,98349.00
2023-01-08T15:03:35.360Z,98343.60
2023-01-08T15:06:02.439Z,98334.40
2023-01-08T15:08:43.988Z,98328.80
2023-01-08T15:11:19.523Z,98317.60
2023-01-08T15:13:48.668Z,98302.80
2023-01-08T15:16:40.016Z,98298.40
2023-01-08T15:19:15.419Z,98297.20
2023-01-08T15:21:49.968Z,98292.20
2023-01-08T15:24:27.585Z,98297.00
2023-01-08T15:26:55.162Z,98301.80
2023-01-08T15:29:37.088Z,98297.60
2023-01-08T15:32:14.707Z,98290.80
2023-01-08T15:34:46.235Z,98293.40
2023-01-08T15:37:14.926Z,98290.40
2023-01-08T15:39:42.872Z,98305.60
2023-01-08T15:42:46.461Z,98305.80
2023-01-08T15:45:23.525Z,98299.40
2023-01-08T15:47:50.034Z,98298.80
2023-01-08T15:50:16.756Z,98297.40
2023-01-08T15:52:43.831Z,98297.80
2023-01-08T15:55:21.877Z,98307.20
2023-01-08T15:57:48.889Z,98298.00
2023-01-08T16:00:18.566Z,98302.60
2023-01-08T16:02:48.505Z,98295.60
2023-01-08T16:05:20.637Z,98301.80
2023-01-08T16:07:47.367Z,98295.60
2023-01-08T16:10:16.022Z,98291.00
2023-01-08T16:12:43.617Z,98290.80
2023-01-08T16:15:12.052Z,98290.40
2023-01-08T16:17:38.585Z,98290.40
2023-01-08T16:20:07.404Z,98283.80
2023-01-08T16:22:34.198Z,98273.40
2023-01-08T16:25:00.710Z,98280.40
2023-01-08T16:27:27.352Z,98290.80
2023-01-08T16:29:53.805Z,98305.20
2023-01-08T16:32:20.270Z,98314.80
2023-01-08T16:34:46.662Z,98304.40
2023-01-08T16:37:14.180Z,98291.80
2023-01-08T16:39:40.803Z,98286.60
2023-01-08T16:42:07.363Z,98277.80
2023-01-08T16:44:36.481Z,98272.00
2023-01-08T16:47:03.094Z,98269.60
2023-01-08T16:49:29.762Z,98260.60
2023-01-08T16:51:56.288Z,98261.80
2023-01-08T16:54:22.822Z,98267.00
2023-01-08T16:56:49.248Z,98257.60
2023-01-08T16:59:23.228Z,98247.00
2023-01-08T17:01:54.144Z,98244.60
2023-01-08T17:04:20.900Z,98241.00
2023-01-08T17:06:47.461Z,98240.00
2023-01-08T17:09:14.669Z,98230.80
2023-01-08T17:11:42.177Z,98228.40
2023-01-08T17:14:09.849Z,98218.00
2023-01-08T17:16:36.497Z,98225.00
2023-01-08T17:19:03.172Z,98222.00
2023-01-08T17:21:29.695Z,98232.40
2023-01-08T17:23:56.336Z,98235.80
2023-01-08T17:26:22.951Z,98242.60
2023-01-08T17:28:49.346Z,98244.00
2023-01-08T17:31:18.919Z,98245.20
2023-01-08T17:33:50.800Z,98243.00
2023-01-08T17:36:24.932Z,98230.40
2023-01-08T17:38:54.348Z,98232.00
2023-01-08T17:41:41.322Z,98238.60
2023-01-08T17:44:10.312Z,98232.60
2023-01-08T17:46:42.301Z,98233.60
2023-01-08T17:49:11.236Z,98234.40
2023-01-08T17:51:40.608Z,98227.80
2023-01-08T17:54:11.420Z,98223.00
2023-01-08T17:56:37.897Z,98221.20
2023-01-08T17:59:04.745Z,98217.80
2023-01-08T18:01:31.983Z,98219.80
2023-01-08T18:03:58.576Z,98218.60
2023-01-08T18:06:25.134Z,98217.00
2023-01-08T18:08:51.631Z,98214.20
2023-01-08T18:11:18.152Z,98212.20
2023-01-08T18:13:44.714Z,98205.80
2023-01-08T18:16:13.951Z,98210.20
2023-01-08T18:18:41.633Z,98211.60
2023-01-08T18:21:08.553Z,98211.60
2023-01-08T18:23:35.003Z,98211.80
2023-01-08T18:26:12.131Z,98214.00
2023-01-08T18:28:39.018Z,98211.40
2023-01-08T18:31:08.422Z,98216.20
2023-01-08T18:33:36.455Z,98215.20
2023-01-08T18:36:10.771Z,98210.60
2023-01-08T18:38:40.990Z,98209.60
2023-01-08T18:41:09.674Z,98211.60
2023-01-08T18:43:37.003Z,98211.80
2023-01-08T18:46:08.049Z,98211.00
2023-01-08T18:48:35.561Z,98215.60
2023-01-08T18:51:07.093Z,98218.40
2023-01-08T18:53:34.804Z,98215.40
2023-01-08T18:56:01.965Z,98217.60
2023-01-08T18:58:29.408Z,98211.00
2023-01-08T19:01:03.055Z,98215.60
2023-01-08T19:03:29.659Z,98213.20
2023-01-08T19:05:56.213Z,98213.20
2023-01-08T19:08:22.867Z,98211.60
2023-01-08T19:10:50.162Z,98211.80
2023-01-08T19:13:17.371Z,98213.60
2023-01-08T19:15:43.817Z,98212.80
2023-01-08T19:18:10.387Z,98215.60
2023-01-08T19:20:43.292Z,98213.80
2023-01-08T19:23:10.064Z,98206.80
2023-01-08T19:25:39.936Z,98206.00
2023-01-08T19:28:07.342Z,98203.00
2023-01-08T19:30:34.121Z,98197.00
2023-01-08T19:33:01.060Z,98194.40
2023-01-08T19:35:28.380Z,98192.20
2023-01-08T19:37:54.813Z,98186.80
2023-01-08T19:40:21.296Z,98181.80
2023-01-08T19:43:06.739Z,98176.20
2023-01-08T19:45:37.393Z,98176.80
2023-01-08T19:48:04.071Z,98174.00
2023-01-08T19:50:31.947Z,98182.00
2023-01-08T19:52:58.449Z,98180.20
2023-01-08T19:55:24.899Z,98179.80
2023-01-08T19:57:51.768Z,98184.80
2023-01-08T20:00:22.230Z,98183.60
2023-01-08T20:02:51.399Z,98177.40
2023-01-08T20:05:18.555Z,98171.00
2023-01-08T20:07:45.024Z,98174.00
2023-01-08T20:10:12.718Z,98171.60
2023-01-08T20:12:39.926Z,98178.80
2023-01-08T20:15:10.027Z,98172.20
2023-01-08T20:17:36.507Z,98160.60
2023-01-08T20:20:03.434Z,98157.00
2023-01-08T20:22:31.125Z,98162.00
2023-01-08T20:24:58.532Z,98152.00
2023-01-08T20:27:25.194Z,98152.40
2023-01-08T20:29:51.739Z,98148.20
2023-01-08T20:32:20.967Z,98137.20
2023-01-08T20:34:48.731Z,98129.40
2023-01-08T20:37:15.216Z,98123.80
2023-01-08T20:39:41.676Z,98130.40
2023-01-08T20:42:08.559Z,98130.40
2023-01-08T20:44:35.620Z,98125.40
2023-01-08T20:47:02.996Z,98118.00
2023-01-08T20:49:29.670Z,98117.60
2023-01-08T20:51:59.446Z,98109.80
2023-01-08T20:54:29.052Z,98101.60
2023-01-08T20:56:57.064Z,98103.80
2023-01-08T20:59:24.298Z,98099.60
2023-01-08T21:01:51.120Z,98091.00
2023-01-08T21:04:18.769Z,98089.80
2023-01-08T21:06:45.530Z,98086.80
2023-01-08T21:09:14.024Z,98075.60
2023-01-08T21:11:41.243Z,98075.00
2023-01-08T21:14:08.799Z,98074.80
2023-01-08T21:16:36.480Z,98070.00
2023-01-08T21:19:03.824Z,98069.40
2023-01-08T21:21:38.331Z,98068.00
2023-01-08T21:24:08.927Z,98068.40
2023-01-08T21:26:37.822Z,98056.00
2023-01-08T21:29:06.451Z,98051.20
2023-01-08T21:31:34.405Z,98049.20
2023-01-08T21:34:03.287Z,98053.40
2023-01-08T21:36:32.042Z,98049.80
2023-01-08T21:39:01.287Z,98045.00
2023-01-08T21:41:48.584Z,98042.40
2023-01-08T21:44:40.533Z,98031.60
2023-01-08T21:47:16.490Z,98018.00
2023-01-08T21:49:45.369Z,98014.00
2023-01-08T21:52:30.833Z,98015.40
2023-01-08T21:55:00.357Z,98016.80
2023-01-08T21:57:28.030Z,98014.80
2023-01-08T21:59:55.782Z,98017.80
2023-01-08T22:02:24.147Z,98023.00
2023-01-08T22:04:55.627Z,98016.20
2023-01-08T22:07:22.688Z,98004.00
2023-01-08T22:09:49.246Z,97996.40
2023-01-08T22:12:17.041Z,97994.00
2023-01-08T22:14:44.423Z,98000.00
2023-01-08T22:17:11.039Z,97992.80
2023-01-08T22:19:39.029Z,97987.60
2023-01-08T22:22:09.446Z,97989.60
2023-01-08T22:24:37.075Z,97999.40
2023-01-08T22:27:03.637Z,97992.40
2023-01-08T22:29:30.195Z,97984.60
2023-01-08T22:31:57.251Z,97979.00
2023-01-08T22:34:23.726Z,97981.00
2023-01-08T22:36:52.756Z,97974.00
2023-01-08T22:39:19.398Z,97967.20
2023-01-08T22:41:46.012Z,97961.40
2023-01-08T22:44:13.239Z,97967.20
2023-01-08T22:46:40.429Z,97959.60
2023-01-08T22:49:09.137Z,97948.60
2023-01-08T22:51:35.707Z,97948.00
2023-01-08T22:54:02.189Z,97943.20
2023-01-08T22:56:29.020Z,97945.40
2023-01-08T22:58:57.564Z,97943.20
2023-01-08T23:01:27.572Z,97948.00
2023-01-08T23:04:00.539Z,97938.20
2023-01-08T23:06:30.552Z,97935.80
2023-01-08T23:08:58.515Z,97933.00
2023-01-08T23:11:25.651Z,97937.40
2023-01-08T23:13:52.569Z,97940.00
2023-01-08T23:16:24.481Z,97940.40
2023-01-08T23:18:52.375Z,97941.20
2023-01-08T23:21:22.195Z,97941.80
2023-01-08T23:23:50.218Z,97936.20
2023-01-08T23:26:22.524Z,97930.20
2023-01-08T23:28:51.535Z,97923.40
2023-01-08T23:31:23.359Z,97914.20
2023-01-08T23:33:51.337Z,97917.00
2023-01-08T23:36:20.847Z,97914.20
2023-01-08T23:38:53.962Z,97920.20
2023-01-08T23:41:30.961Z,97914.80
2023-01-08T23:44:04.226Z,97905.80
2023-01-08T23:46:30.741Z,97908.20
2023-01-08T23:48:57.438Z,97908.40
2023-01-08T23:51:24.427Z,97913.40
2023-01-08T23:53:53.789Z,97909.20
2023-01-08T23:56:21.299Z,97897.00
2023-01-08T23:58:49.249Z,97899.40
